createdAt,value
2022-11-05T05:31:07.876Z,99.99
2022-11-05T05:32:07.805Z,99.99
2022-11-05T05:33:07.726Z,99.99
2022-11-05T05:34:07.704Z,99.99
2022-11-05T05:35:07.679Z,99.99
2022-11-05T05:36:11.308Z,99.99
2022-11-05T05:37:07.660Z,99.99
2022-11-05T05:39:34.953Z,99.99
2022-11-05T05:42:23.803Z,99.99
2022-11-05T05:43:33.343Z,99.99
2022-11-05T05:44:23.744Z,99.99
2022-11-05T05:45:23.844Z,99.99
2022-11-05T05:46:23.790Z,99.99
2022-11-05T05:47:23.746Z,99.99
2022-11-05T05:48:23.716Z,99.99
2022-11-05T05:50:33.956Z,99.99
2022-11-05T05:51:33.946Z,99.99
2022-11-05T05:55:24.754Z,99.99
2022-11-05T05:56:24.671Z,99.99
2022-11-05T05:57:32.321Z,99.99
2022-11-05T05:58:24.700Z,99.99
2022-11-05T05:59:24.669Z,99.99
2022-11-05T06:00:24.674Z,99.99
2022-11-05T06:01:24.697Z,99.99
2022-11-05T06:02:24.787Z,99.99
2022-11-05T06:03:24.618Z,99.99
2022-11-05T06:04:24.605Z,99.99
2022-11-05T06:05:24.559Z,99.99
2022-11-05T06:06:24.545Z,99.99
2022-11-05T06:07:37.196Z,99.99
2022-11-05T06:09:57.077Z,99.99
2022-11-05T06:11:04.977Z,99.99
2022-11-05T06:11:57.031Z,99.99
2022-11-05T06:12:57.006Z,99.99
2022-11-05T06:17:36.174Z,99.99
2022-11-05T06:18:36.078Z,99.99
2022-11-05T06:19:36.119Z,99.99
2022-11-05T06:20:36.072Z,99.99
2022-11-05T06:21:36.038Z,99.99
2022-11-05T06:22:36.039Z,99.99
2022-11-05T06:23:36.018Z,99.99
2022-11-05T06:24:35.978Z,99.99
2022-11-05T06:25:40.900Z,99.99
2022-11-05T06:26:36.945Z,99.99
2022-11-05T06:27:35.924Z,99.99
2022-11-05T06:28:35.908Z,99.99
2022-11-05T06:29:35.894Z,99.99
2022-11-05T06:30:35.882Z,99.99
2022-11-05T06:31:35.879Z,99.99
2022-11-05T06:32:35.853Z,99.99
2022-11-05T06:33:35.889Z,99.99
2022-11-05T06:34:35.838Z,99.86
2022-11-05T06:35:35.887Z,99.86
2022-11-05T06:36:35.807Z,99.99
2022-11-05T06:37:35.844Z,99.96
2022-11-05T06:38:35.790Z,99.99
2022-11-05T06:39:35.780Z,99.99
2022-11-05T06:40:35.796Z,99.34
2022-11-05T06:41:56.952Z,99.55
2022-11-05T06:44:37.875Z,99.34
2022-11-05T06:45:37.871Z,99.29
2022-11-05T06:46:37.829Z,99.49
2022-11-05T06:47:37.940Z,99.08
2022-11-05T06:48:37.751Z,99.49
2022-11-05T06:52:16.898Z,99.60
2022-11-05T06:53:16.879Z,99.65
2022-11-05T06:54:16.862Z,99.14
2022-11-05T06:55:16.878Z,99.34
2022-11-05T06:56:16.803Z,99.34
2022-11-05T06:57:16.831Z,99.24
2022-11-05T06:58:16.798Z,99.76
2022-11-05T06:59:16.847Z,99.76
2022-11-05T07:00:16.798Z,99.99
2022-11-05T07:01:16.918Z,99.86
2022-11-05T07:02:16.843Z,99.99
2022-11-05T07:03:16.722Z,99.99
2022-11-05T07:04:16.812Z,99.71
2022-11-05T07:05:16.734Z,99.91
2022-11-05T07:06:16.754Z,99.99
2022-11-05T07:07:16.740Z,99.99
2022-11-05T07:08:16.684Z,99.99
2022-11-05T07:09:16.680Z,99.99
2022-11-05T07:10:16.706Z,99.99
2022-11-05T07:11:16.655Z,99.99
2022-11-05T07:12:16.623Z,99.99
2022-11-05T07:13:16.996Z,99.99
2022-11-05T07:14:16.622Z,99.99
2022-11-05T07:15:16.620Z,99.99
2022-11-05T07:16:16.593Z,99.99
2022-11-05T07:17:16.574Z,99.99
2022-11-05T07:18:16.568Z,99.99
2022-11-05T07:19:16.547Z,99.99
2022-11-05T07:20:16.643Z,99.99
2022-11-05T07:21:16.528Z,99.99
2022-11-05T07:22:16.523Z,99.99
2022-11-05T07:23:16.519Z,99.99
2022-11-05T07:24:16.493Z,99.99
2022-11-05T07:25:16.478Z,99.99
2022-11-05T07:26:16.547Z,99.99
2022-11-05T07:27:16.459Z,99.99
2022-11-05T07:28:16.470Z,99.99
2022-11-05T07:29:16.435Z,99.99
2022-11-05T07:30:16.438Z,99.99
2022-11-05T07:31:16.429Z,99.93
2022-11-05T07:32:16.433Z,99.99
2022-11-05T07:33:16.394Z,99.31
2022-11-05T07:34:16.380Z,99.41
2022-11-05T07:35:16.372Z,99.15
2022-11-05T07:36:16.371Z,99.21
2022-11-05T07:37:16.356Z,98.90
2022-11-05T07:38:16.397Z,99.46
2022-11-05T07:39:16.331Z,99.46
2022-11-05T07:40:16.316Z,99.35
2022-11-05T07:41:16.311Z,99.21
2022-11-05T07:42:16.328Z,99.35
2022-11-05T07:43:16.308Z,99.15
2022-11-05T07:44:16.274Z,98.74
2022-11-05T07:45:24.237Z,98.33
2022-11-05T07:46:16.304Z,98.59
2022-11-05T07:47:16.277Z,99.00
2022-11-05T07:48:16.311Z,98.59
2022-11-05T07:49:16.243Z,98.28
2022-11-05T07:50:16.222Z,98.65
2022-11-05T07:51:16.225Z,98.03
2022-11-05T07:52:16.218Z,97.82
2022-11-05T07:53:16.188Z,97.67
2022-11-05T07:54:16.188Z,97.47
2022-11-05T07:55:16.165Z,96.85
2022-11-05T07:56:16.163Z,96.34
2022-11-05T07:57:16.169Z,95.93
2022-11-05T07:58:16.142Z,95.93
2022-11-05T07:59:16.122Z,96.44
2022-11-05T08:00:16.109Z,96.14
2022-11-05T08:01:16.274Z,96.55
2022-11-05T08:02:16.342Z,96.60
2022-11-05T08:03:16.606Z,96.40
2022-11-05T08:04:16.063Z,95.74
2022-11-05T08:05:16.128Z,95.94
2022-11-05T08:06:16.070Z,96.30
2022-11-05T08:07:16.039Z,95.32
2022-11-05T08:08:16.030Z,95.43
2022-11-05T08:09:16.037Z,95.64
2022-11-05T08:10:15.999Z,95.69
2022-11-05T08:11:16.056Z,95.74
2022-11-05T08:12:15.975Z,95.28
2022-11-05T08:13:16.246Z,94.87
2022-11-05T08:14:15.993Z,94.73
2022-11-05T08:15:15.945Z,94.52
2022-11-05T08:16:15.980Z,94.21
2022-11-05T08:17:18.424Z,93.76
2022-11-05T08:18:15.923Z,93.76
2022-11-05T08:19:15.915Z,93.51
2022-11-05T08:20:15.920Z,92.38
2022-11-05T08:21:15.910Z,92.38
2022-11-05T08:22:15.866Z,91.77
2022-11-05T08:23:16.190Z,90.75
2022-11-05T08:24:15.855Z,91.36
2022-11-05T08:25:15.852Z,91.87
2022-11-05T08:26:15.858Z,91.56
2022-11-05T08:27:15.825Z,91.42
2022-11-05T08:28:15.835Z,91.22
2022-11-05T08:29:15.793Z,91.01
2022-11-05T08:30:15.795Z,90.56
2022-11-05T08:31:15.769Z,91.07
2022-11-05T08:32:15.798Z,90.36
2022-11-05T08:33:16.021Z,90.45
2022-11-05T08:34:15.730Z,90.21
2022-11-05T08:35:15.734Z,90.41
2022-11-05T08:36:15.714Z,89.76
2022-11-05T08:37:15.728Z,89.15
2022-11-05T08:38:15.710Z,88.23
2022-11-05T08:39:17.115Z,87.67
2022-11-05T08:40:15.708Z,88.33
2022-11-05T08:41:15.684Z,87.20
2022-11-05T08:42:15.662Z,87.51
2022-11-05T08:43:15.658Z,88.12
2022-11-05T08:44:15.647Z,89.04
2022-11-05T08:45:15.615Z,88.02
2022-11-05T08:46:15.601Z,87.71
2022-11-05T08:47:15.593Z,88.90
2022-11-05T08:48:15.629Z,88.55
2022-11-05T08:49:15.586Z,89.06
2022-11-05T08:50:15.588Z,88.04
2022-11-05T08:51:15.588Z,87.84
2022-11-05T08:52:15.582Z,88.04
2022-11-05T08:53:15.839Z,88.85
2022-11-05T08:54:15.523Z,88.10
2022-11-05T08:55:15.522Z,88.06
2022-11-05T08:56:15.557Z,87.96
2022-11-05T08:57:15.490Z,87.76
2022-11-05T08:58:15.520Z,87.00
2022-11-05T08:59:15.507Z,87.61
2022-11-05T09:00:15.650Z,87.00
2022-11-05T09:01:15.529Z,86.59
2022-11-05T09:02:15.583Z,86.69
2022-11-05T09:03:15.730Z,86.59
2022-11-05T09:04:15.453Z,86.90
2022-11-05T09:05:15.459Z,86.90
2022-11-05T09:06:15.389Z,86.90
2022-11-05T09:07:15.410Z,87.00
2022-11-05T09:08:15.372Z,87.61
2022-11-05T09:09:15.364Z,88.02
2022-11-05T09:10:15.446Z,88.02
2022-11-05T09:11:15.345Z,87.98
2022-11-05T09:12:15.338Z,86.69
2022-11-05T09:13:19.381Z,84.66
2022-11-05T09:14:15.338Z,83.73
2022-11-05T09:15:15.371Z,85.47
2022-11-05T09:16:15.345Z,83.06
2022-11-05T09:17:15.347Z,83.78
2022-11-05T09:18:15.263Z,83.78
2022-11-05T09:19:15.270Z,85.61
2022-11-05T09:20:15.260Z,85.61
2022-11-05T09:21:15.224Z,85.57
2022-11-05T09:22:15.236Z,84.75
2022-11-05T09:23:15.312Z,83.73
2022-11-05T09:24:15.311Z,83.09
2022-11-05T09:25:15.219Z,83.90
2022-11-05T09:26:15.194Z,83.49
2022-11-05T09:27:15.189Z,82.92
2022-11-05T09:28:17.113Z,83.12
2022-11-05T09:29:15.138Z,83.63
2022-11-05T09:30:15.202Z,83.43
2022-11-05T09:31:15.139Z,83.63
2022-11-05T09:32:15.130Z,83.43
2022-11-05T09:33:15.165Z,83.84
2022-11-05T09:34:15.128Z,84.66
2022-11-05T09:35:15.092Z,83.43
2022-11-05T09:36:15.128Z,84.08
2022-11-05T09:37:15.116Z,84.86
2022-11-05T09:38:15.046Z,83.57
2022-11-05T09:39:15.081Z,84.80
2022-11-05T09:40:15.049Z,84.59
2022-11-05T09:41:15.049Z,83.67
2022-11-05T09:42:15.017Z,84.69
2022-11-05T09:43:15.021Z,84.75
2022-11-05T09:44:14.995Z,84.80
2022-11-05T09:45:14.996Z,84.49
2022-11-05T09:46:14.970Z,84.66
2022-11-05T09:47:14.948Z,84.75
2022-11-05T09:48:14.939Z,83.33
2022-11-05T09:49:14.921Z,85.02
2022-11-05T09:50:14.942Z,81.70
2022-11-05T09:51:19.266Z,83.84
2022-11-05T09:52:14.911Z,83.84
2022-11-05T09:53:14.885Z,83.09
2022-11-05T09:54:14.919Z,83.04
2022-11-05T09:55:14.864Z,83.21
2022-11-05T09:56:14.872Z,83.31
2022-11-05T09:57:14.867Z,81.99
2022-11-05T09:58:14.868Z,81.88
2022-11-05T09:59:14.820Z,81.17
2022-11-05T10:00:14.914Z,81.11
2022-11-05T10:01:14.867Z,81.96
2022-11-05T10:02:14.865Z,83.02
2022-11-05T10:03:14.892Z,83.90
2022-11-05T10:04:14.781Z,83.39
2022-11-05T10:05:14.858Z,83.70
2022-11-05T10:06:14.740Z,83.18
2022-11-05T10:07:14.733Z,83.39
2022-11-05T10:08:14.743Z,82.78
2022-11-05T10:09:14.706Z,83.63
2022-11-05T10:10:14.736Z,82.17
2022-11-05T10:11:14.693Z,83.09
2022-11-05T10:12:14.716Z,82.17
2022-11-05T10:13:14.768Z,83.04
2022-11-05T10:14:14.681Z,82.13
2022-11-05T10:15:14.655Z,81.62
2022-11-05T10:16:14.662Z,82.23
2022-11-05T10:17:14.628Z,82.74
2022-11-05T10:18:14.660Z,82.40
2022-11-05T10:19:14.626Z,81.07
2022-11-05T10:20:14.599Z,81.48
2022-11-05T10:21:14.623Z,80.42
2022-11-05T10:22:14.576Z,81.24
2022-11-05T10:23:14.807Z,80.79
2022-11-05T10:24:14.571Z,80.49
2022-11-05T10:25:14.565Z,78.55
2022-11-05T10:26:14.539Z,79.06
2022-11-05T10:27:14.519Z,79.57
2022-11-05T10:28:14.526Z,79.20
2022-11-05T10:29:14.492Z,78.42
2022-11-05T10:30:14.523Z,79.81
2022-11-05T10:31:14.536Z,78.69
2022-11-05T10:32:14.507Z,79.20
2022-11-05T10:33:14.622Z,79.81
2022-11-05T10:34:14.449Z,80.90
2022-11-05T10:35:14.451Z,80.18
2022-11-05T10:36:14.439Z,78.35
2022-11-05T10:37:14.439Z,78.08
2022-11-05T10:38:14.387Z,78.80
2022-11-05T10:39:14.434Z,79.24
2022-11-05T10:40:14.413Z,80.02
2022-11-05T10:41:14.380Z,80.02
2022-11-05T10:42:14.378Z,79.81
2022-11-05T10:43:14.552Z,80.02
2022-11-05T10:44:18.676Z,80.32
2022-11-05T10:45:14.353Z,79.50
2022-11-05T10:46:14.322Z,79.41
2022-11-05T10:47:14.361Z,79.37
2022-11-05T10:48:14.325Z,79.71
2022-11-05T10:49:14.277Z,77.61
2022-11-05T10:50:14.290Z,79.38
2022-11-05T10:51:14.246Z,79.27
2022-11-05T10:52:14.278Z,79.17
2022-11-05T10:53:14.567Z,80.19
2022-11-05T10:54:14.250Z,79.85
2022-11-05T10:55:14.204Z,80.09
2022-11-05T10:56:14.199Z,80.50
2022-11-05T10:57:14.190Z,80.64
2022-11-05T10:58:14.180Z,82.03
2022-11-05T10:59:14.176Z,81.96
2022-11-05T11:00:14.162Z,82.37
2022-11-05T11:01:14.204Z,81.86
2022-11-05T11:02:14.191Z,81.66
2022-11-05T11:03:14.299Z,80.13
2022-11-05T11:04:14.122Z,80.43
2022-11-05T11:05:14.096Z,81.04
2022-11-05T11:06:14.093Z,81.18
2022-11-05T11:07:14.105Z,82.00
2022-11-05T11:08:14.067Z,82.37
2022-11-05T11:09:14.072Z,82.31
2022-11-05T11:10:14.076Z,81.80
2022-11-05T11:11:14.043Z,82.71
2022-11-05T11:12:14.033Z,81.90
2022-11-05T11:13:14.195Z,82.10
2022-11-05T11:14:14.049Z,81.90
2022-11-05T11:15:14.058Z,82.21
2022-11-05T11:16:14.049Z,80.78
2022-11-05T11:17:13.992Z,81.18
2022-11-05T11:18:13.964Z,81.76
2022-11-05T11:19:13.953Z,80.84
2022-11-05T11:20:13.985Z,80.94
2022-11-05T11:21:13.942Z,79.62
2022-11-05T11:22:14.015Z,79.55
2022-11-05T11:23:14.629Z,80.84
2022-11-05T11:24:14.037Z,80.02
2022-11-05T11:25:13.888Z,80.74
2022-11-05T11:26:13.916Z,79.93
2022-11-05T11:27:13.900Z,79.62
2022-11-05T11:28:13.875Z,80.54
2022-11-05T11:29:13.962Z,81.01
2022-11-05T11:30:13.840Z,81.11
2022-11-05T11:31:13.882Z,82.40
2022-11-05T11:32:13.825Z,81.99
2022-11-05T11:33:14.145Z,78.42
2022-11-05T11:34:13.803Z,77.81
2022-11-05T11:35:13.815Z,78.63
2022-11-05T11:36:13.786Z,78.83
2022-11-05T11:37:19.071Z,77.81
2022-11-05T11:38:14.794Z,78.73
2022-11-05T11:39:13.748Z,79.03
2022-11-05T11:40:13.748Z,78.89
2022-11-05T11:41:13.712Z,79.44
2022-11-05T11:42:13.754Z,78.73
2022-11-05T11:43:14.003Z,78.39
2022-11-05T11:44:13.759Z,78.80
2022-11-05T11:45:13.704Z,78.19
2022-11-05T11:46:15.122Z,78.12
2022-11-05T11:47:13.692Z,77.98
2022-11-05T11:48:13.690Z,78.83
2022-11-05T11:49:13.655Z,77.37
2022-11-05T11:50:13.648Z,77.17
2022-11-05T11:51:13.748Z,77.20
2022-11-05T11:52:13.617Z,77.47
2022-11-05T11:53:13.840Z,77.30
2022-11-05T11:54:13.605Z,77.87
2022-11-05T11:55:13.569Z,77.37
2022-11-05T11:56:13.603Z,77.40
2022-11-05T11:57:15.242Z,76.39
2022-11-05T11:58:13.534Z,77.67
2022-11-05T11:59:13.546Z,77.67
2022-11-05T12:00:13.778Z,77.87
2022-11-05T12:01:13.694Z,76.79
2022-11-05T12:02:13.865Z,77.81
2022-11-05T12:03:13.892Z,76.69
2022-11-05T12:04:13.697Z,76.08
2022-11-05T12:05:13.602Z,76.39
2022-11-05T12:06:14.595Z,77.30
2022-11-05T12:07:13.634Z,77.20
2022-11-05T12:08:13.479Z,77.00
2022-11-05T12:09:13.545Z,77.10
2022-11-05T12:10:13.487Z,76.08
2022-11-05T12:11:13.396Z,77.00
2022-11-05T12:12:13.387Z,76.32
2022-11-05T12:13:13.565Z,77.85
2022-11-05T12:14:13.383Z,77.24
2022-11-05T12:15:13.373Z,77.40
2022-11-05T12:16:13.345Z,77.10
2022-11-05T12:17:13.339Z,76.59
2022-11-05T12:18:13.365Z,77.40
2022-11-05T12:19:13.324Z,77.30
2022-11-05T12:20:13.999Z,77.61
2022-11-05T12:21:13.360Z,77.10
2022-11-05T12:22:13.313Z,77.30
2022-11-05T12:23:13.875Z,77.20
2022-11-05T12:24:13.317Z,75.57
2022-11-05T12:25:13.314Z,76.59
2022-11-05T12:26:13.243Z,75.78
2022-11-05T12:30:23.236Z,75.51
2022-11-05T12:31:23.206Z,75.10
2022-11-05T12:32:23.255Z,76.32
2022-11-05T12:33:23.203Z,75.40
2022-11-05T12:34:23.203Z,75.71
2022-11-05T12:35:23.194Z,76.87
2022-11-05T12:36:23.152Z,77.48
2022-11-05T12:37:23.172Z,77.58
2022-11-05T12:38:23.158Z,76.15
2022-11-05T12:39:23.150Z,77.48
2022-11-05T12:40:23.119Z,77.37
2022-11-05T12:41:23.094Z,77.58
2022-11-05T12:42:23.117Z,77.07
2022-11-05T12:43:23.066Z,77.72
2022-11-05T12:44:23.098Z,77.31
2022-11-05T12:45:23.075Z,77.31
2022-11-05T12:46:23.070Z,77.62
2022-11-05T12:47:23.042Z,76.59
2022-11-05T12:48:28.244Z,77.31
2022-11-05T12:49:24.020Z,77.31
2022-11-05T12:50:23.025Z,77.41
2022-11-05T12:51:23.068Z,77.51
2022-11-05T12:52:22.968Z,78.23
2022-11-05T12:53:22.976Z,78.02
2022-11-05T12:54:22.946Z,78.53
2022-11-05T12:55:22.971Z,77.92
2022-11-05T12:56:22.981Z,77.21
2022-11-05T12:57:22.918Z,77.62
2022-11-05T12:58:22.949Z,78.33
2022-11-05T12:59:22.920Z,77.96
2022-11-05T13:00:22.885Z,78.02
2022-11-05T13:01:23.004Z,77.72
2022-11-05T13:02:22.980Z,78.06
2022-11-05T13:03:22.862Z,78.06
2022-11-05T13:04:22.860Z,78.67
2022-11-05T13:05:22.836Z,79.25
2022-11-05T13:06:22.871Z,78.84
2022-11-05T13:07:22.835Z,78.98
2022-11-05T13:08:22.824Z,77.45
2022-11-05T13:09:22.790Z,78.16
2022-11-05T13:10:22.782Z,78.06
2022-11-05T13:11:22.863Z,78.16
2022-11-05T13:12:22.772Z,78.88
2022-11-05T13:13:22.746Z,78.47
2022-11-05T13:14:22.738Z,79.28
2022-11-05T13:15:22.718Z,78.06
2022-11-05T13:16:22.770Z,78.16
2022-11-05T13:17:22.697Z,78.77
2022-11-05T13:18:22.690Z,79.28
2022-11-05T13:19:22.715Z,78.98
2022-11-05T13:20:22.674Z,78.06
2022-11-05T13:21:22.670Z,78.16
2022-11-05T13:22:22.647Z,78.37
2022-11-05T13:23:22.627Z,78.27
2022-11-05T13:24:22.626Z,78.27
2022-11-05T13:25:22.639Z,78.06
2022-11-05T13:26:22.633Z,78.06
2022-11-05T13:27:22.587Z,78.06
2022-11-05T13:28:22.595Z,78.06
2022-11-05T13:29:22.584Z,78.67
2022-11-05T13:30:22.554Z,78.67
2022-11-05T13:31:22.550Z,78.47
2022-11-05T13:32:22.564Z,78.57
2022-11-05T13:33:22.561Z,77.86
2022-11-05T13:34:22.535Z,77.75
2022-11-05T13:35:22.494Z,78.77
2022-11-05T13:36:22.513Z,79.49
2022-11-05T13:37:22.531Z,78.77
2022-11-05T13:38:22.464Z,77.75
2022-11-05T13:39:22.471Z,78.27
2022-11-05T13:40:22.465Z,78.47
2022-11-05T13:41:22.440Z,78.57
2022-11-05T13:42:22.417Z,78.47
2022-11-05T13:43:22.549Z,79.59
2022-11-05T13:44:22.405Z,78.47
2022-11-05T13:45:22.401Z,78.27
2022-11-05T13:46:22.382Z,78.27
2022-11-05T13:47:22.377Z,78.47
2022-11-05T13:48:22.362Z,78.06
2022-11-05T13:49:22.355Z,77.55
2022-11-05T13:50:22.336Z,77.75
2022-11-05T13:51:22.344Z,77.96
2022-11-05T13:52:22.381Z,77.75
2022-11-05T13:53:22.302Z,78.37
2022-11-05T13:54:22.331Z,78.47
2022-11-05T13:55:22.306Z,77.75
2022-11-05T13:56:22.273Z,77.55
2022-11-05T13:57:22.252Z,77.55
2022-11-05T13:58:22.244Z,78.16
2022-11-05T13:59:22.287Z,78.37
2022-11-05T14:00:22.230Z,78.37
2022-11-05T14:01:22.294Z,78.06
2022-11-05T14:02:22.413Z,78.41
2022-11-05T14:03:22.265Z,78.06
2022-11-05T14:04:22.185Z,78.16
2022-11-05T14:05:22.200Z,78.20
2022-11-05T14:06:22.166Z,79.52
2022-11-05T14:07:22.138Z,78.71
2022-11-05T14:08:22.154Z,78.71
2022-11-05T14:09:22.144Z,79.02
2022-11-05T14:10:22.116Z,79.02
2022-11-05T14:11:22.095Z,78.20
2022-11-05T14:12:22.118Z,78.61
2022-11-05T14:13:22.116Z,79.43
2022-11-05T14:14:22.067Z,79.73
2022-11-05T14:15:22.097Z,80.04
2022-11-05T14:16:22.047Z,79.83
2022-11-05T14:17:22.055Z,79.52
2022-11-05T14:18:22.072Z,78.64
2022-11-05T14:19:22.005Z,78.44
2022-11-05T14:20:21.993Z,78.54
2022-11-05T14:21:22.019Z,78.64
2022-11-05T14:22:21.979Z,79.57
2022-11-05T14:23:21.977Z,79.57
2022-11-05T14:24:22.009Z,79.63
2022-11-05T14:25:21.942Z,78.81
2022-11-05T14:26:21.932Z,78.91
2022-11-05T14:27:21.958Z,79.66
2022-11-05T14:28:21.913Z,79.63
2022-11-05T14:29:21.896Z,79.05
2022-11-05T14:30:21.902Z,78.81
2022-11-05T14:31:25.199Z,78.34
2022-11-05T14:32:22.886Z,79.25
2022-11-05T14:33:21.873Z,79.43
2022-11-05T14:34:21.842Z,79.97
2022-11-05T14:35:21.836Z,79.66
2022-11-05T14:36:21.856Z,80.14
2022-11-05T14:37:21.877Z,80.18
2022-11-05T14:38:21.805Z,78.54
2022-11-05T14:39:21.796Z,78.54
2022-11-05T14:40:21.810Z,79.16
2022-11-05T14:41:21.768Z,79.97
2022-11-05T14:42:21.759Z,79.77
2022-11-05T14:43:21.765Z,80.28
2022-11-05T14:44:21.760Z,79.25
2022-11-05T14:45:21.725Z,79.77
2022-11-05T14:46:21.717Z,78.54
2022-11-05T14:47:21.724Z,79.77
2022-11-05T14:48:21.706Z,79.46
2022-11-05T14:49:21.685Z,79.66
2022-11-05T14:50:21.726Z,79.66
2022-11-05T14:51:21.654Z,79.97
2022-11-05T14:52:21.649Z,80.58
2022-11-05T14:53:21.671Z,80.21
2022-11-05T14:54:21.627Z,80.48
2022-11-05T14:55:21.640Z,80.58
2022-11-05T14:56:21.625Z,80.07
2022-11-05T14:57:21.600Z,80.38
2022-11-05T14:58:21.587Z,80.99
2022-11-05T14:59:21.571Z,80.62
2022-11-05T15:00:21.560Z,80.01
2022-11-05T15:01:21.651Z,80.32
2022-11-05T15:02:21.800Z,81.24
2022-11-05T15:03:21.589Z,81.13
2022-11-05T15:04:22.268Z,81.34
2022-11-05T15:05:21.509Z,81.34
2022-11-05T15:06:21.502Z,81.13
2022-11-05T15:07:21.494Z,80.93
2022-11-05T15:08:21.516Z,81.65
2022-11-05T15:09:21.473Z,82.05
2022-11-05T15:10:21.454Z,82.05
2022-11-05T15:11:21.439Z,81.65
2022-11-05T15:12:21.452Z,81.88
2022-11-05T15:13:21.432Z,82.26
2022-11-05T15:14:21.439Z,82.26
2022-11-05T15:15:22.144Z,82.46
2022-11-05T15:16:21.383Z,82.56
2022-11-05T15:17:21.376Z,81.74
2022-11-05T15:18:21.391Z,81.24
2022-11-05T15:19:21.361Z,81.34
2022-11-05T15:20:21.388Z,82.26
2022-11-05T15:21:21.364Z,81.54
2022-11-05T15:22:21.341Z,81.65
2022-11-05T15:23:21.336Z,81.54
2022-11-05T15:24:21.312Z,81.99
2022-11-05T15:25:21.283Z,81.74
2022-11-05T15:26:21.306Z,80.97
2022-11-05T15:27:21.266Z,81.58
2022-11-05T15:28:21.274Z,81.13
2022-11-05T15:29:21.267Z,81.44
2022-11-05T15:30:21.223Z,81.34
2022-11-05T15:31:21.238Z,81.48
2022-11-05T15:32:21.206Z,81.34
2022-11-05T15:33:21.217Z,81.48
2022-11-05T15:34:21.196Z,81.48
2022-11-05T15:35:21.284Z,81.68
2022-11-05T15:36:21.160Z,81.88
2022-11-05T15:37:21.168Z,81.03
2022-11-05T15:38:21.168Z,81.88
2022-11-05T15:39:29.526Z,80.97
2022-11-05T15:40:22.146Z,81.38
2022-11-05T15:41:21.114Z,81.48
2022-11-05T15:42:21.109Z,82.20
2022-11-05T15:43:21.093Z,82.40
2022-11-05T15:44:21.095Z,82.70
2022-11-05T15:45:21.093Z,82.29
2022-11-05T15:46:21.053Z,81.88
2022-11-05T15:47:21.075Z,82.29
2022-11-05T15:48:21.035Z,82.40
2022-11-05T15:49:21.025Z,83.11
2022-11-05T15:50:21.033Z,83.22
2022-11-05T15:51:21.017Z,83.66
2022-11-05T15:52:21.003Z,84.34
2022-11-05T15:53:44.328Z,83.97
2022-11-05T15:54:30.092Z,83.97
2022-11-05T15:55:21.984Z,84.69
2022-11-05T15:56:20.959Z,84.79
2022-11-05T15:57:20.997Z,84.95
2022-11-05T15:58:20.970Z,85.10
2022-11-05T15:59:20.913Z,84.69
2022-11-05T16:00:20.960Z,84.48
2022-11-05T16:01:20.986Z,84.69
2022-11-05T16:02:21.004Z,85.10
2022-11-05T16:03:20.885Z,85.20
2022-11-05T16:04:20.863Z,85.61
2022-11-05T16:05:21.008Z,85.81
2022-11-05T16:06:20.864Z,86.32
2022-11-05T16:07:20.937Z,87.29
2022-11-05T16:08:20.822Z,87.18
2022-11-05T16:09:20.808Z,87.08
2022-11-05T16:10:20.797Z,87.08
2022-11-05T16:11:20.818Z,87.38
2022-11-05T16:12:20.770Z,87.29
2022-11-05T16:13:20.763Z,87.73
2022-11-05T16:14:20.753Z,87.29
2022-11-05T16:15:20.736Z,87.32
2022-11-05T16:16:20.764Z,87.32
2022-11-05T16:17:20.770Z,87.22
2022-11-05T16:18:20.722Z,87.63
2022-11-05T16:19:20.707Z,88.14
2022-11-05T16:20:20.706Z,88.24
2022-11-05T16:21:20.682Z,88.24
2022-11-05T16:22:20.673Z,88.56
2022-11-05T16:23:20.709Z,88.65
2022-11-05T16:24:23.042Z,89.27
2022-11-05T16:25:21.634Z,88.45
2022-11-05T16:26:41.227Z,89.17
2022-11-05T16:27:21.615Z,89.06
2022-11-05T16:28:20.601Z,88.04
2022-11-05T16:29:20.639Z,85.93
2022-11-05T16:30:20.585Z,85.89
2022-11-05T16:31:20.601Z,85.72
2022-11-05T16:32:23.094Z,85.11
2022-11-05T16:33:21.560Z,84.70
2022-11-05T16:34:20.526Z,85.22
2022-11-05T16:35:20.546Z,83.68
2022-11-05T16:36:20.503Z,83.78
2022-11-05T16:37:20.541Z,84.19
2022-11-05T16:38:20.498Z,83.98
2022-11-05T16:39:20.494Z,84.19
2022-11-05T16:40:20.502Z,84.29
2022-11-05T16:41:20.464Z,83.78
2022-11-05T16:42:20.442Z,84.19
2022-11-05T16:43:20.462Z,83.27
2022-11-05T16:44:20.415Z,83.17
2022-11-05T16:45:20.468Z,83.98
2022-11-05T16:46:20.402Z,83.78
2022-11-05T16:47:20.418Z,83.78
2022-11-05T16:48:20.384Z,84.39
2022-11-05T16:49:20.399Z,83.88
2022-11-05T16:50:20.390Z,84.39
2022-11-05T16:51:26.274Z,83.95
2022-11-05T16:52:21.328Z,83.68
2022-11-05T16:53:20.382Z,84.09
2022-11-05T16:54:20.321Z,84.15
2022-11-05T16:55:20.313Z,84.29
2022-11-05T16:56:20.310Z,84.09
2022-11-05T16:57:20.302Z,84.60
2022-11-05T16:58:20.290Z,83.98
2022-11-05T16:59:20.266Z,84.50
2022-11-05T17:00:20.275Z,83.98
2022-11-05T17:01:20.369Z,84.29
2022-11-05T17:02:20.412Z,83.98
2022-11-05T17:03:20.219Z,83.88
2022-11-05T17:04:20.223Z,84.29
2022-11-05T17:05:20.202Z,83.88
2022-11-05T17:06:20.181Z,84.29
2022-11-05T17:07:20.202Z,84.39
2022-11-05T17:08:20.157Z,84.70
2022-11-05T17:09:20.220Z,84.29
2022-11-05T17:10:20.186Z,83.98
2022-11-05T17:11:20.158Z,84.44
2022-11-05T17:12:20.140Z,84.95
2022-11-05T17:13:20.323Z,84.74
2022-11-05T17:14:20.138Z,84.03
2022-11-05T17:15:20.113Z,84.95
2022-11-05T17:16:20.122Z,84.84
2022-11-05T17:17:20.127Z,85.09
2022-11-05T17:18:20.387Z,85.60
2022-11-05T17:19:20.038Z,85.71
2022-11-05T17:20:20.041Z,85.66
2022-11-05T17:21:20.090Z,85.91
2022-11-05T17:22:19.999Z,84.95
2022-11-05T17:23:20.012Z,85.05
2022-11-05T17:24:19.984Z,84.99
2022-11-05T17:25:19.977Z,85.15
2022-11-05T17:26:19.959Z,85.05
2022-11-05T17:27:19.990Z,85.15
2022-11-05T17:28:20.032Z,84.99
2022-11-05T17:29:20.025Z,85.19
2022-11-05T17:30:19.968Z,86.01
2022-11-05T17:31:19.924Z,85.71
2022-11-05T17:32:19.960Z,85.80
2022-11-05T17:33:19.970Z,85.80
2022-11-05T17:34:19.874Z,86.11
2022-11-05T17:35:19.901Z,85.60
2022-11-05T17:36:19.859Z,85.97
2022-11-05T17:37:19.837Z,86.01
2022-11-05T17:38:19.828Z,86.01
2022-11-05T17:39:19.847Z,85.71
2022-11-05T17:40:19.840Z,86.22
2022-11-05T17:41:19.794Z,85.80
2022-11-05T17:42:19.784Z,86.01
2022-11-05T17:43:19.794Z,86.42
2022-11-05T17:44:19.775Z,86.22
2022-11-05T17:45:19.762Z,86.42
2022-11-05T17:46:19.762Z,87.18
2022-11-05T17:47:19.759Z,86.83
2022-11-05T17:48:19.728Z,87.24
2022-11-05T17:49:19.885Z,86.63
2022-11-05T17:50:19.707Z,86.11
2022-11-05T17:51:19.706Z,86.73
2022-11-05T17:52:19.718Z,86.36
2022-11-05T17:53:19.693Z,86.73
2022-11-05T17:54:19.664Z,87.18
2022-11-05T17:55:19.666Z,87.59
2022-11-05T17:56:27.633Z,86.63
2022-11-05T17:57:20.674Z,87.24
2022-11-05T17:58:19.619Z,87.24
2022-11-05T17:59:19.659Z,87.14
2022-11-05T18:00:19.588Z,87.24
2022-11-05T18:01:19.695Z,87.34
2022-11-05T18:02:19.724Z,86.93
2022-11-05T18:03:19.579Z,87.34
2022-11-05T18:04:19.575Z,87.04
2022-11-05T18:05:19.535Z,87.34
2022-11-05T18:06:19.526Z,87.14
2022-11-05T18:07:19.517Z,87.14
2022-11-05T18:08:19.524Z,87.14
2022-11-05T18:09:20.215Z,87.45
2022-11-05T18:10:19.469Z,87.45
2022-11-05T18:11:19.459Z,87.24
2022-11-05T18:12:19.449Z,87.45
2022-11-05T18:13:19.446Z,86.73
2022-11-05T18:14:23.871Z,87.24
2022-11-05T18:15:19.437Z,87.45
2022-11-05T18:16:19.412Z,87.04
2022-11-05T18:17:19.398Z,87.14
2022-11-05T18:18:19.393Z,87.45
2022-11-05T18:19:19.394Z,87.24
2022-11-05T18:20:19.781Z,87.45
2022-11-05T18:21:19.363Z,87.55
2022-11-05T18:22:19.439Z,87.24
2022-11-05T18:23:19.374Z,87.14
2022-11-05T18:24:19.354Z,87.24
2022-11-05T18:25:19.324Z,87.14
2022-11-05T18:26:19.313Z,87.24
2022-11-05T18:27:19.318Z,87.34
2022-11-05T18:28:19.360Z,87.55
2022-11-05T18:29:19.367Z,87.45
2022-11-05T18:30:19.251Z,87.14
2022-11-05T18:31:19.279Z,87.14
2022-11-05T18:32:19.282Z,87.24
2022-11-05T18:33:19.232Z,87.45
2022-11-05T18:34:19.273Z,87.24
2022-11-05T18:35:19.202Z,87.14
2022-11-05T18:36:19.189Z,87.34
2022-11-05T18:37:19.206Z,88.00
2022-11-05T18:38:19.221Z,88.00
2022-11-05T18:39:19.189Z,87.55
2022-11-05T18:40:19.166Z,88.17
2022-11-05T18:41:19.166Z,88.47
2022-11-05T18:42:19.128Z,87.55
2022-11-05T18:43:19.117Z,88.31